sensor_id;sensor_type;location;lat;lon;timestamp;temperature;humidity
21762;DHT22;11203;50.870;20.682;2023-02-15T00:01:56;2.40;1.00
21762;DHT22;11203;50.870;20.682;2023-02-15T00:04:24;2.40;1.00
21762;DHT22;11203;50.870;20.682;2023-02-15T00:07:11;2.40;1.00
21762;DHT22;11203;50.870;20.682;2023-02-15T00:09:39;2.30;1.00
21762;DHT22;11203;50.870;20.682;2023-02-15T00:12:05;2.30;1.00
21762;DHT22;11203;50.870;20.682;2023-02-15T00:14:31;2.60;1.00
21762;DHT22;11203;50.870;20.682;2023-02-15T00:16:57;2.50;1.00
21762;DHT22;11203;50.870;20.682;2023-02-15T00:19:25;2.40;1.00
21762;DHT22;11203;50.870;20.682;2023-02-15T00:21:51;2.40;1.00
21762;DHT22;11203;50.870;20.682;2023-02-15T00:24:19;2.40;1.00
21762;DHT22;11203;50.870;20.682;2023-02-15T00:26:45;2.50;1.00
21762;DHT22;11203;50.870;20.682;2023-02-15T00:29:14;2.50;1.00
21762;DHT22;11203;50.870;20.682;2023-02-15T00:31:41;2.50;1.00
21762;DHT22;11203;50.870;20.682;2023-02-15T00:34:13;2.50;1.00
21762;DHT22;11203;50.870;20.682;2023-02-15T00:36:41;2.50;1.00
21762;DHT22;11203;50.870;20.682;2023-02-15T00:39:09;2.40;1.00
21762;DHT22;11203;50.870;20.682;2023-02-15T00:41:35;2.50;1.00
21762;DHT22;11203;50.870;20.682;2023-02-15T00:44:02;2.50;1.00
21762;DHT22;11203;50.870;20.682;2023-02-15T00:46:29;2.40;1.00
21762;DHT22;11203;50.870;20.682;2023-02-15T00:48:59;2.50;1.00
21762;DHT22;11203;50.870;20.682;2023-02-15T00:51:25;2.50;1.00
21762;DHT22;11203;50.870;20.682;2023-02-15T00:53:51;2.50;1.00
21762;DHT22;11203;50.870;20.682;2023-02-15T00:56:18;2.60;1.00
21762;DHT22;11203;50.870;20.682;2023-02-15T00:58:44;2.40;1.00
21762;DHT22;11203;50.870;20.682;2023-02-15T01:01:16;2.50;1.00
21762;DHT22;11203;50.870;20.682;2023-02-15T01:03:43;2.50;1.00
21762;DHT22;11203;50.870;20.682;2023-02-15T01:06:11;2.50;1.00
21762;DHT22;11203;50.870;20.682;2023-02-15T01:08:38;2.60;1.00
21762;DHT22;11203;50.870;20.682;2023-02-15T01:11:12;2.60;1.00
21762;DHT22;11203;50.870;20.682;2023-02-15T01:13:41;2.60;1.00
21762;DHT22;11203;50.870;20.682;2023-02-15T01:16:07;2.50;1.00
21762;DHT22;11203;50.870;20.682;2023-02-15T01:18:35;2.50;99.90
21762;DHT22;11203;50.870;20.682;2023-02-15T01:21:16;2.50;1.00
21762;DHT22;11203;50.870;20.682;2023-02-15T01:23:44;2.50;99.90
21762;DHT22;11203;50.870;20.682;2023-02-15T01:26:11;2.40;1.00
21762;DHT22;11203;50.870;20.682;2023-02-15T01:28:38;2.50;99.90
21762;DHT22;11203;50.870;20.682;2023-02-15T01:31:15;2.50;99.90
21762;DHT22;11203;50.870;20.682;2023-02-15T01:33:42;2.40;99.90
21762;DHT22;11203;50.870;20.682;2023-02-15T01:36:09;2.40;99.90
21762;DHT22;11203;50.870;20.682;2023-02-15T01:38:35;2.40;99.90
21762;DHT22;11203;50.870;20.682;2023-02-15T01:41:02;2.30;99.90
21762;DHT22;11203;50.870;20.682;2023-02-15T01:43:59;2.30;99.90
21762;DHT22;11203;50.870;20.682;2023-02-15T01:46:40;2.30;99.90
21762;DHT22;11203;50.870;20.682;2023-02-15T01:49:14;2.30;99.90
21762;DHT22;11203;50.870;20.682;2023-02-15T01:51:44;2.30;1.00
21762;DHT22;11203;50.870;20.682;2023-02-15T01:56:53;2.30;1.00
21762;DHT22;11203;50.870;20.682;2023-02-15T01:59:22;2.30;1.00
21762;DHT22;11203;50.870;20.682;2023-02-15T02:01:51;2.30;1.00
21762;DHT22;11203;50.870;20.682;2023-02-15T02:04:33;2.30;1.00
21762;DHT22;11203;50.870;20.682;2023-02-15T02:07:09;2.40;1.00
21762;DHT22;11203;50.870;20.682;2023-02-15T02:09:38;2.30;1.00
21762;DHT22;11203;50.870;20.682;2023-02-15T02:12:04;2.30;1.00
21762;DHT22;11203;50.870;20.682;2023-02-15T02:14:31;2.30;1.00
21762;DHT22;11203;50.870;20.682;2023-02-15T02:23:30;2.30;1.00
21762;DHT22;11203;50.870;20.682;2023-02-15T02:35:35;2.30;1.00
21762;DHT22;11203;50.870;20.682;2023-02-15T02:43:49;2.30;1.00
21762;DHT22;11203;50.870;20.682;2023-02-15T02:47:26;2.30;1.00
21762;DHT22;11203;50.870;20.682;2023-02-15T02:49:40;2.30;1.00
21762;DHT22;11203;50.870;20.682;2023-02-15T02:52:43;2.30;1.00
21762;DHT22;11203;50.870;20.682;2023-02-15T02:58:05;2.30;1.00
21762;DHT22;11203;50.870;20.682;2023-02-15T03:00:55;2.30;1.00
21762;DHT22;11203;50.870;20.682;2023-02-15T03:03:32;2.20;42.10
21762;DHT22;11203;50.870;20.682;2023-02-15T03:06:09;2.20;20.10
21762;DHT22;11203;50.870;20.682;2023-02-15T03:08:43;2.20;1.00
21762;DHT22;11203;50.870;20.682;2023-02-15T03:11:16;2.10;99.90
21762;DHT22;11203;50.870;20.682;2023-02-15T03:13:43;2.60;1.00
21762;DHT22;11203;50.870;20.682;2023-02-15T03:16:10;2.10;99.90
21762;DHT22;11203;50.870;20.682;2023-02-15T03:19:01;2.10;99.90
21762;DHT22;11203;50.870;20.682;2023-02-15T03:21:50;2.10;1.00
21762;DHT22;11203;50.870;20.682;2023-02-15T03:24:34;2.10;1.00
21762;DHT22;11203;50.870;20.682;2023-02-15T03:27:05;2.20;1.00
21762;DHT22;11203;50.870;20.682;2023-02-15T03:29:34;2.10;1.00
21762;DHT22;11203;50.870;20.682;2023-02-15T03:32:04;2.20;1.00
21762;DHT22;11203;50.870;20.682;2023-02-15T03:34:32;2.20;1.00
21762;DHT22;11203;50.870;20.682;2023-02-15T03:42:32;2.30;1.00
21762;DHT22;11203;50.870;20.682;2023-02-15T03:45:08;2.20;99.90
21762;DHT22;11203;50.870;20.682;2023-02-15T03:47:38;2.30;99.90
21762;DHT22;11203;50.870;20.682;2023-02-15T03:53:02;2.30;99.90
21762;DHT22;11203;50.870;20.682;2023-02-15T03:55:32;2.30;1.00
21762;DHT22;11203;50.870;20.682;2023-02-15T03:57:59;2.20;10.80
21762;DHT22;11203;50.870;20.682;2023-02-15T04:00:52;2.20;99.90
21762;DHT22;11203;50.870;20.682;2023-02-15T04:06:10;2.00;99.90
21762;DHT22;11203;50.870;20.682;2023-02-15T04:08:36;2.10;1.00
21762;DHT22;11203;50.870;20.682;2023-02-15T04:11:21;2.20;1.00
21762;DHT22;11203;50.870;20.682;2023-02-15T04:13:47;2.20;99.90
21762;DHT22;11203;50.870;20.682;2023-02-15T04:16:13;2.30;99.90
21762;DHT22;11203;50.870;20.682;2023-02-15T04:18:42;2.30;99.90
21762;DHT22;11203;50.870;20.682;2023-02-15T04:21:30;2.10;10.60
21762;DHT22;11203;50.870;20.682;2023-02-15T04:24:15;2.00;99.90
21762;DHT22;11203;50.870;20.682;2023-02-15T04:27:01;2.00;99.90
21762;DHT22;11203;50.870;20.682;2023-02-15T04:29:28;1.90;1.00
21762;DHT22;11203;50.870;20.682;2023-02-15T04:31:56;2.00;1.00
21762;DHT22;11203;50.870;20.682;2023-02-15T04:34:23;2.10;1.00
21762;DHT22;11203;50.870;20.682;2023-02-15T04:36:50;2.10;99.90
21762;DHT22;11203;50.870;20.682;2023-02-15T04:39:17;2.20;99.90
21762;DHT22;11203;50.870;20.682;2023-02-15T04:41:44;2.10;99.90
21762;DHT22;11203;50.870;20.682;2023-02-15T04:44:11;2.10;1.00
21762;DHT22;11203;50.870;20.682;2023-02-15T04:46:37;2.30;1.00
21762;DHT22;11203;50.870;20.682;2023-02-15T04:49:04;2.50;99.90
21762;DHT22;11203;50.870;20.682;2023-02-15T04:51:29;2.00;99.90
21762;DHT22;11203;50.870;20.682;2023-02-15T04:53:56;2.10;1.00
21762;DHT22;11203;50.870;20.682;2023-02-15T04:56:22;2.20;1.00
21762;DHT22;11203;50.870;20.682;2023-02-15T04:58:49;2.10;99.90
21762;DHT22;11203;50.870;20.682;2023-02-15T05:01:14;2.10;99.90
21762;DHT22;11203;50.870;20.682;2023-02-15T05:03:41;2.20;99.90
21762;DHT22;11203;50.870;20.682;2023-02-15T05:06:07;2.10;99.90
21762;DHT22;11203;50.870;20.682;2023-02-15T05:08:33;2.20;99.90
21762;DHT22;11203;50.870;20.682;2023-02-15T05:10:59;2.20;99.90
21762;DHT22;11203;50.870;20.682;2023-02-15T05:13:25;2.00;1.00
21762;DHT22;11203;50.870;20.682;2023-02-15T05:15:52;2.20;99.90
21762;DHT22;11203;50.870;20.682;2023-02-15T05:18:20;2.10;99.90
21762;DHT22;11203;50.870;20.682;2023-02-15T05:20:47;2.10;99.90
21762;DHT22;11203;50.870;20.682;2023-02-15T05:23:13;1.90;99.90
21762;DHT22;11203;50.870;20.682;2023-02-15T05:25:40;1.90;1.00
21762;DHT22;11203;50.870;20.682;2023-02-15T05:28:27;2.00;99.90
21762;DHT22;11203;50.870;20.682;2023-02-15T05:31:08;2.00;99.90
21762;DHT22;11203;50.870;20.682;2023-02-15T05:33:37;2.00;99.90
21762;DHT22;11203;50.870;20.682;2023-02-15T05:36:03;1.90;99.90
21762;DHT22;11203;50.870;20.682;2023-02-15T05:38:30;1.90;99.90
21762;DHT22;11203;50.870;20.682;2023-02-15T05:40:57;2.00;25.40
21762;DHT22;11203;50.870;20.682;2023-02-15T05:43:23;2.00;21.40
21762;DHT22;11203;50.870;20.682;2023-02-15T05:45:52;2.00;99.90
21762;DHT22;11203;50.870;20.682;2023-02-15T05:48:21;2.00;60.10
21762;DHT22;11203;50.870;20.682;2023-02-15T05:51:10;2.10;1.00
21762;DHT22;11203;50.870;20.682;2023-02-15T05:53:39;2.00;44.40
21762;DHT22;11203;50.870;20.682;2023-02-15T05:56:07;2.10;99.90
21762;DHT22;11203;50.870;20.682;2023-02-15T05:58:37;1.90;99.90
21762;DHT22;11203;50.870;20.682;2023-02-15T06:03:35;1.90;1.00
21762;DHT22;11203;50.870;20.682;2023-02-15T06:06:01;1.80;1.00
21762;DHT22;11203;50.870;20.682;2023-02-15T06:08:31;1.80;1.00
21762;DHT22;11203;50.870;20.682;2023-02-15T06:10:57;1.90;1.00
21762;DHT22;11203;50.870;20.682;2023-02-15T06:13:23;1.80;1.00
21762;DHT22;11203;50.870;20.682;2023-02-15T06:15:49;1.80;1.00
21762;DHT22;11203;50.870;20.682;2023-02-15T06:18:16;1.80;1.00
21762;DHT22;11203;50.870;20.682;2023-02-15T06:20:42;1.80;1.00
21762;DHT22;11203;50.870;20.682;2023-02-15T06:23:08;1.80;1.00
21762;DHT22;11203;50.870;20.682;2023-02-15T06:25:34;1.70;1.00
21762;DHT22;11203;50.870;20.682;2023-02-15T06:28:00;1.80;1.00
21762;DHT22;11203;50.870;20.682;2023-02-15T06:30:26;1.80;1.00
21762;DHT22;11203;50.870;20.682;2023-02-15T06:32:52;1.80;1.00
21762;DHT22;11203;50.870;20.682;2023-02-15T06:35:18;1.90;1.00
21762;DHT22;11203;50.870;20.682;2023-02-15T06:37:45;1.90;1.00
21762;DHT22;11203;50.870;20.682;2023-02-15T06:40:12;1.90;99.90
21762;DHT22;11203;50.870;20.682;2023-02-15T06:42:38;1.90;99.90
21762;DHT22;11203;50.870;20.682;2023-02-15T06:45:04;1.90;99.90
21762;DHT22;11203;50.870;20.682;2023-02-15T06:47:31;1.90;99.90
21762;DHT22;11203;50.870;20.682;2023-02-15T06:49:57;1.80;1.00
21762;DHT22;11203;50.870;20.682;2023-02-15T06:52:23;1.70;1.00
21762;DHT22;11203;50.870;20.682;2023-02-15T06:54:50;1.70;1.00
21762;DHT22;11203;50.870;20.682;2023-02-15T06:57:17;1.90;1.00
21762;DHT22;11203;50.870;20.682;2023-02-15T06:59:43;1.80;1.00
21762;DHT22;11203;50.870;20.682;2023-02-15T07:02:11;1.80;1.00
21762;DHT22;11203;50.870;20.682;2023-02-15T07:04:37;1.90;1.00
21762;DHT22;11203;50.870;20.682;2023-02-15T07:07:07;1.80;1.00
21762;DHT22;11203;50.870;20.682;2023-02-15T07:09:33;1.80;1.00
21762;DHT22;11203;50.870;20.682;2023-02-15T07:12:00;1.90;1.00
21762;DHT22;11203;50.870;20.682;2023-02-15T07:14:44;1.90;1.00
21762;DHT22;11203;50.870;20.682;2023-02-15T07:17:10;1.90;1.00
21762;DHT22;11203;50.870;20.682;2023-02-15T07:19:36;1.80;1.00
21762;DHT22;11203;50.870;20.682;2023-02-15T07:22:02;1.70;1.00
21762;DHT22;11203;50.870;20.682;2023-02-15T07:24:30;1.80;1.00
21762;DHT22;11203;50.870;20.682;2023-02-15T07:26:57;1.80;1.00
21762;DHT22;11203;50.870;20.682;2023-02-15T07:29:23;1.80;1.00
21762;DHT22;11203;50.870;20.682;2023-02-15T07:31:50;1.90;99.90
21762;DHT22;11203;50.870;20.682;2023-02-15T07:34:16;2.00;99.90
21762;DHT22;11203;50.870;20.682;2023-02-15T07:36:42;1.90;1.00
21762;DHT22;11203;50.870;20.682;2023-02-15T07:39:11;2.00;1.00
21762;DHT22;11203;50.870;20.682;2023-02-15T07:41:37;1.90;1.00
21762;DHT22;11203;50.870;20.682;2023-02-15T07:44:03;1.90;1.00
21762;DHT22;11203;50.870;20.682;2023-02-15T07:46:29;2.00;1.00
21762;DHT22;11203;50.870;20.682;2023-02-15T07:48:55;2.00;1.00
21762;DHT22;11203;50.870;20.682;2023-02-15T07:51:22;2.00;1.00
21762;DHT22;11203;50.870;20.682;2023-02-15T07:53:48;2.00;1.00
21762;DHT22;11203;50.870;20.682;2023-02-15T07:56:15;2.00;99.90
21762;DHT22;11203;50.870;20.682;2023-02-15T07:58:41;2.00;99.90
21762;DHT22;11203;50.870;20.682;2023-02-15T08:01:21;2.20;99.90
21762;DHT22;11203;50.870;20.682;2023-02-15T08:03:48;2.10;99.90
21762;DHT22;11203;50.870;20.682;2023-02-15T08:06:14;2.20;99.90
21762;DHT22;11203;50.870;20.682;2023-02-15T08:08:41;2.20;54.10
21762;DHT22;11203;50.870;20.682;2023-02-15T08:11:23;2.20;99.90
21762;DHT22;11203;50.870;20.682;2023-02-15T08:19:13;2.20;2.10
21762;DHT22;11203;50.870;20.682;2023-02-15T08:21:43;2.10;99.90
21762;DHT22;11203;50.870;20.682;2023-02-15T08:24:15;2.10;47.10
21762;DHT22;11203;50.870;20.682;2023-02-15T08:26:43;2.20;99.90
21762;DHT22;11203;50.870;20.682;2023-02-15T08:29:16;2.20;99.90
21762;DHT22;11203;50.870;20.682;2023-02-15T08:31:45;2.30;1.00
21762;DHT22;11203;50.870;20.682;2023-02-15T08:34:14;2.40;99.90
21762;DHT22;11203;50.870;20.682;2023-02-15T08:36:43;2.30;99.90
21762;DHT22;11203;50.870;20.682;2023-02-15T08:39:11;2.30;6.60
21762;DHT22;11203;50.870;20.682;2023-02-15T08:41:39;2.30;1.00
21762;DHT22;11203;50.870;20.682;2023-02-15T08:44:08;2.30;99.90
21762;DHT22;11203;50.870;20.682;2023-02-15T08:46:40;2.20;99.90
21762;DHT22;11203;50.870;20.682;2023-02-15T08:49:08;2.20;99.90
21762;DHT22;11203;50.870;20.682;2023-02-15T08:51:37;2.10;99.90
21762;DHT22;11203;50.870;20.682;2023-02-15T08:54:07;2.30;99.90
21762;DHT22;11203;50.870;20.682;2023-02-15T08:56:37;2.30;99.90
21762;DHT22;11203;50.870;20.682;2023-02-15T08:59:06;2.30;99.90
21762;DHT22;11203;50.870;20.682;2023-02-15T09:01:36;2.30;1.00
21762;DHT22;11203;50.870;20.682;2023-02-15T09:04:06;2.40;1.00
21762;DHT22;11203;50.870;20.682;2023-02-15T09:06:36;2.40;1.00
21762;DHT22;11203;50.870;20.682;2023-02-15T09:09:03;2.40;1.00
21762;DHT22;11203;50.870;20.682;2023-02-15T09:11:34;2.30;1.00
21762;DHT22;11203;50.870;20.682;2023-02-15T09:14:06;2.30;1.00
21762;DHT22;11203;50.870;20.682;2023-02-15T09:16:42;2.30;56.30
21762;DHT22;11203;50.870;20.682;2023-02-15T09:19:14;2.40;1.00
21762;DHT22;11203;50.870;20.682;2023-02-15T09:21:41;2.40;1.00
21762;DHT22;11203;50.870;20.682;2023-02-15T09:24:09;2.40;1.00
21762;DHT22;11203;50.870;20.682;2023-02-15T09:26:38;2.40;1.00
21762;DHT22;11203;50.870;20.682;2023-02-15T09:29:06;2.50;1.00
21762;DHT22;11203;50.870;20.682;2023-02-15T09:31:38;2.50;1.00
21762;DHT22;11203;50.870;20.682;2023-02-15T09:34:07;2.40;1.00
21762;DHT22;11203;50.870;20.682;2023-02-15T09:36:38;2.50;1.00
21762;DHT22;11203;50.870;20.682;2023-02-15T09:39:13;2.50;1.00
21762;DHT22;11203;50.870;20.682;2023-02-15T10:12:54;3.00;1.00
21762;DHT22;11203;50.870;20.682;2023-02-15T10:19:08;3.00;1.00
21762;DHT22;11203;50.870;20.682;2023-02-15T10:28:04;3.20;1.00
21762;DHT22;11203;50.870;20.682;2023-02-15T10:33:42;3.00;1.00
21762;DHT22;11203;50.870;20.682;2023-02-15T10:39:47;3.20;1.00
21762;DHT22;11203;50.870;20.682;2023-02-15T10:42:35;3.10;1.00
21762;DHT22;11203;50.870;20.682;2023-02-15T10:45:53;3.10;99.90
21762;DHT22;11203;50.870;20.682;2023-02-15T10:48:58;3.10;1.00
21762;DHT22;11203;50.870;20.682;2023-02-15T10:51:34;3.20;1.00
21762;DHT22;11203;50.870;20.682;2023-02-15T11:00:17;3.50;99.90
21762;DHT22;11203;50.870;20.682;2023-02-15T11:06:18;3.60;99.90
21762;DHT22;11203;50.870;20.682;2023-02-15T11:08:53;3.70;99.20
21762;DHT22;11203;50.870;20.682;2023-02-15T11:11:29;3.70;1.00
21762;DHT22;11203;50.870;20.682;2023-02-15T11:14:13;3.60;1.00
21762;DHT22;11203;50.870;20.682;2023-02-15T11:16:46;3.60;1.00
21762;DHT22;11203;50.870;20.682;2023-02-15T11:19:23;3.70;1.00
21762;DHT22;11203;50.870;20.682;2023-02-15T11:22:01;3.80;1.00
21762;DHT22;11203;50.870;20.682;2023-02-15T11:24:31;3.80;1.00
21762;DHT22;11203;50.870;20.682;2023-02-15T11:27:19;3.90;1.00
21762;DHT22;11203;50.870;20.682;2023-02-15T11:29:55;3.90;1.00
21762;DHT22;11203;50.870;20.682;2023-02-15T11:32:39;4.00;1.00
21762;DHT22;11203;50.870;20.682;2023-02-15T11:41:31;4.20;1.00
21762;DHT22;11203;50.870;20.682;2023-02-15T11:44:34;4.30;1.00
21762;DHT22;11203;50.870;20.682;2023-02-15T11:47:07;4.30;1.00
21762;DHT22;11203;50.870;20.682;2023-02-15T11:49:35;4.30;1.00
21762;DHT22;11203;50.870;20.682;2023-02-15T11:52:10;4.30;1.00
21762;DHT22;11203;50.870;20.682;2023-02-15T11:54:51;4.40;1.00
21762;DHT22;11203;50.870;20.682;2023-02-15T11:57:28;4.30;1.00
21762;DHT22;11203;50.870;20.682;2023-02-15T12:02:54;4.20;1.00
21762;DHT22;11203;50.870;20.682;2023-02-15T12:05:24;4.10;1.00
21762;DHT22;11203;50.870;20.682;2023-02-15T12:08:18;4.20;1.00
21762;DHT22;11203;50.870;20.682;2023-02-15T12:11:32;4.40;1.00
21762;DHT22;11203;50.870;20.682;2023-02-15T12:14:01;4.40;1.00
21762;DHT22;11203;50.870;20.682;2023-02-15T12:16:50;4.60;1.00
21762;DHT22;11203;50.870;20.682;2023-02-15T12:19:37;4.50;99.90
21762;DHT22;11203;50.870;20.682;2023-02-15T12:22:29;4.60;99.90
21762;DHT22;11203;50.870;20.682;2023-02-15T12:25:25;4.70;99.90
21762;DHT22;11203;50.870;20.682;2023-02-15T12:27:55;4.50;1.00
21762;DHT22;11203;50.870;20.682;2023-02-15T12:30:27;4.70;1.00
21762;DHT22;11203;50.870;20.682;2023-02-15T12:33:13;4.70;99.90
21762;DHT22;11203;50.870;20.682;2023-02-15T12:35:44;4.80;1.00
21762;DHT22;11203;50.870;20.682;2023-02-15T12:40:40;4.70;99.90
21762;DHT22;11203;50.870;20.682;2023-02-15T12:43:26;4.70;99.90
21762;DHT22;11203;50.870;20.682;2023-02-15T12:46:14;4.80;99.90
21762;DHT22;11203;50.870;20.682;2023-02-15T12:48:46;4.60;1.00
21762;DHT22;11203;50.870;20.682;2023-02-15T12:51:16;4.60;99.90
21762;DHT22;11203;50.870;20.682;2023-02-15T12:53:42;4.60;1.00
21762;DHT22;11203;50.870;20.682;2023-02-15T12:56:09;4.70;99.90
21762;DHT22;11203;50.870;20.682;2023-02-15T12:58:39;4.70;99.90
21762;DHT22;11203;50.870;20.682;2023-02-15T13:03:49;4.70;83.50
21762;DHT22;11203;50.870;20.682;2023-02-15T13:06:17;4.60;1.00
21762;DHT22;11203;50.870;20.682;2023-02-15T13:08:50;4.60;1.00
21762;DHT22;11203;50.870;20.682;2023-02-15T13:11:30;4.70;99.90
21762;DHT22;11203;50.870;20.682;2023-02-15T13:14:19;4.60;99.90
21762;DHT22;11203;50.870;20.682;2023-02-15T13:16:50;4.50;99.90
21762;DHT22;11203;50.870;20.682;2023-02-15T13:21:47;4.50;99.90
21762;DHT22;11203;50.870;20.682;2023-02-15T13:27:24;4.60;1.00
21762;DHT22;11203;50.870;20.682;2023-02-15T13:29:57;4.50;99.90
21762;DHT22;11203;50.870;20.682;2023-02-15T13:32:35;4.40;99.90
21762;DHT22;11203;50.870;20.682;2023-02-15T13:35:04;4.50;99.90
21762;DHT22;11203;50.870;20.682;2023-02-15T13:40:25;4.40;99.90
21762;DHT22;11203;50.870;20.682;2023-02-15T13:49:51;4.40;99.90
21762;DHT22;11203;50.870;20.682;2023-02-15T13:52:48;4.30;1.00
21762;DHT22;11203;50.870;20.682;2023-02-15T13:55:37;4.30;1.00
21762;DHT22;11203;50.870;20.682;2023-02-15T14:01:45;4.30;99.90
21762;DHT22;11203;50.870;20.682;2023-02-15T14:26:14;4.50;99.90
21762;DHT22;11203;50.870;20.682;2023-02-15T14:29:10;4.60;1.00
21762;DHT22;11203;50.870;20.682;2023-02-15T14:31:45;4.50;1.00
21762;DHT22;11203;50.870;20.682;2023-02-15T14:34:29;4.60;1.00
21762;DHT22;11203;50.870;20.682;2023-02-15T14:37:00;4.50;1.00
21762;DHT22;11203;50.870;20.682;2023-02-15T14:39:38;4.50;99.90
21762;DHT22;11203;50.870;20.682;2023-02-15T14:43:08;4.60;99.90
21762;DHT22;11203;50.870;20.682;2023-02-15T14:48:32;4.50;99.90
21762;DHT22;11203;50.870;20.682;2023-02-15T14:50:59;4.60;1.00
21762;DHT22;11203;50.870;20.682;2023-02-15T14:53:38;4.50;1.00
21762;DHT22;11203;50.870;20.682;2023-02-15T14:56:13;4.60;1.00
21762;DHT22;11203;50.870;20.682;2023-02-15T15:01:15;4.60;99.90
21762;DHT22;11203;50.870;20.682;2023-02-15T15:03:52;4.80;1.00
21762;DHT22;11203;50.870;20.682;2023-02-15T15:06:30;4.80;99.90
21762;DHT22;11203;50.870;20.682;2023-02-15T15:09:20;4.60;1.00
21762;DHT22;11203;50.870;20.682;2023-02-15T15:11:53;4.60;1.00
21762;DHT22;11203;50.870;20.682;2023-02-15T15:17:05;4.60;1.00
21762;DHT22;11203;50.870;20.682;2023-02-15T15:22:27;4.50;99.90
21762;DHT22;11203;50.870;20.682;2023-02-15T15:24:59;4.50;99.90
21762;DHT22;11203;50.870;20.682;2023-02-15T15:49:43;3.80;99.90
21762;DHT22;11203;50.870;20.682;2023-02-15T15:52:18;3.80;99.90
21762;DHT22;11203;50.870;20.682;2023-02-15T15:54:47;4.20;21.70
21762;DHT22;11203;50.870;20.682;2023-02-15T15:59:51;3.80;1.00
21762;DHT22;11203;50.870;20.682;2023-02-15T16:02:19;3.70;1.00
21762;DHT22;11203;50.870;20.682;2023-02-15T16:04:45;3.50;1.00
21762;DHT22;11203;50.870;20.682;2023-02-15T16:09:59;3.40;99.90
21762;DHT22;11203;50.870;20.682;2023-02-15T16:12:33;3.30;99.90
21762;DHT22;11203;50.870;20.682;2023-02-15T16:15:16;3.30;99.90
21762;DHT22;11203;50.870;20.682;2023-02-15T16:17:47;3.20;99.90
21762;DHT22;11203;50.870;20.682;2023-02-15T16:20:27;3.10;99.90
21762;DHT22;11203;50.870;20.682;2023-02-15T16:28:29;2.90;99.90
21762;DHT22;11203;50.870;20.682;2023-02-15T16:33:40;2.80;1.00
21762;DHT22;11203;50.870;20.682;2023-02-15T16:36:32;2.70;99.90
21762;DHT22;11203;50.870;20.682;2023-02-15T16:41:27;2.00;99.90
21762;DHT22;11203;50.870;20.682;2023-02-15T16:44:19;2.50;1.00
21762;DHT22;11203;50.870;20.682;2023-02-15T16:46:48;2.50;25.60
21762;DHT22;11203;50.870;20.682;2023-02-15T16:49:26;2.30;1.00
21762;DHT22;11203;50.870;20.682;2023-02-15T16:52:00;2.10;1.00
21762;DHT22;11203;50.870;20.682;2023-02-15T16:54:30;2.00;1.00
21762;DHT22;11203;50.870;20.682;2023-02-15T16:56:57;1.80;1.00
21762;DHT22;11203;50.870;20.682;2023-02-15T16:59:44;1.70;99.90
21762;DHT22;11203;50.870;20.682;2023-02-15T17:02:27;1.60;1.00
21762;DHT22;11203;50.870;20.682;2023-02-15T17:07:41;1.40;1.00
21762;DHT22;11203;50.870;20.682;2023-02-15T17:10:35;1.40;1.00
21762;DHT22;11203;50.870;20.682;2023-02-15T17:13:15;1.40;99.90
21762;DHT22;11203;50.870;20.682;2023-02-15T17:18:20;1.40;99.90
21762;DHT22;11203;50.870;20.682;2023-02-15T17:20:50;1.40;1.00
21762;DHT22;11203;50.870;20.682;2023-02-15T17:26:00;1.40;1.00
21762;DHT22;11203;50.870;20.682;2023-02-15T17:28:51;1.40;99.90
21762;DHT22;11203;50.870;20.682;2023-02-15T17:31:20;1.30;1.00
21762;DHT22;11203;50.870;20.682;2023-02-15T17:33:47;1.30;72.30
21762;DHT22;11203;50.870;20.682;2023-02-15T17:36:17;1.30;1.00
21762;DHT22;11203;50.870;20.682;2023-02-15T17:41:25;1.20;1.00
21762;DHT22;11203;50.870;20.682;2023-02-15T17:44:03;1.10;1.00
21762;DHT22;11203;50.870;20.682;2023-02-15T17:46:35;1.10;1.00
21762;DHT22;11203;50.870;20.682;2023-02-15T17:49:03;1.10;99.90
21762;DHT22;11203;50.870;20.682;2023-02-15T17:51:30;1.00;99.90
21762;DHT22;11203;50.870;20.682;2023-02-15T17:53:57;0.90;99.90
21762;DHT22;11203;50.870;20.682;2023-02-15T17:56:42;0.90;1.00
21762;DHT22;11203;50.870;20.682;2023-02-15T17:59:08;0.80;99.90
21762;DHT22;11203;50.870;20.682;2023-02-15T18:01:42;0.60;1.00
21762;DHT22;11203;50.870;20.682;2023-02-15T18:04:31;0.60;99.90
21762;DHT22;11203;50.870;20.682;2023-02-15T18:07:17;0.70;99.90
21762;DHT22;11203;50.870;20.682;2023-02-15T18:10:13;0.70;1.00
21762;DHT22;11203;50.870;20.682;2023-02-15T18:13:00;0.60;1.00
21762;DHT22;11203;50.870;20.682;2023-02-15T18:15:26;0.50;99.90
21762;DHT22;11203;50.870;20.682;2023-02-15T18:17:53;0.40;1.00
21762;DHT22;11203;50.870;20.682;2023-02-15T18:20:35;0.50;99.90
21762;DHT22;11203;50.870;20.682;2023-02-15T18:23:05;0.50;99.90
21762;DHT22;11203;50.870;20.682;2023-02-15T18:25:31;0.40;99.90
21762;DHT22;11203;50.870;20.682;2023-02-15T18:27:57;0.40;1.00
21762;DHT22;11203;50.870;20.682;2023-02-15T18:30:23;0.30;99.90
21762;DHT22;11203;50.870;20.682;2023-02-15T18:32:53;0.30;99.90
21762;DHT22;11203;50.870;20.682;2023-02-15T18:35:23;0.20;99.90
21762;DHT22;11203;50.870;20.682;2023-02-15T18:37:52;0.20;77.10
21762;DHT22;11203;50.870;20.682;2023-02-15T18:40:20;0.20;99.90
21762;DHT22;11203;50.870;20.682;2023-02-15T18:42:48;0.10;1.00
21762;DHT22;11203;50.870;20.682;2023-02-15T18:45:18;-0.10;1.00
21762;DHT22;11203;50.870;20.682;2023-02-15T18:47:47;0.00;1.00
21762;DHT22;11203;50.870;20.682;2023-02-15T18:50:14;0.30;1.00
21762;DHT22;11203;50.870;20.682;2023-02-15T18:52:44;0.10;99.90
21762;DHT22;11203;50.870;20.682;2023-02-15T18:55:25;0.10;1.00
21762;DHT22;11203;50.870;20.682;2023-02-15T18:57:57;0.10;99.90
21762;DHT22;11203;50.870;20.682;2023-02-15T19:00:26;0.00;1.00
21762;DHT22;11203;50.870;20.682;2023-02-15T19:02:55;-0.10;1.00
21762;DHT22;11203;50.870;20.682;2023-02-15T19:05:22;0.00;1.00
21762;DHT22;11203;50.870;20.682;2023-02-15T19:07:49;-0.10;1.00
21762;DHT22;11203;50.870;20.682;2023-02-15T19:10:34;0.00;1.00
21762;DHT22;11203;50.870;20.682;2023-02-15T19:13:01;-0.10;1.00
21762;DHT22;11203;50.870;20.682;2023-02-15T19:15:28;0.00;1.00
21762;DHT22;11203;50.870;20.682;2023-02-15T19:17:55;-0.10;99.90
21762;DHT22;11203;50.870;20.682;2023-02-15T19:20:34;0.00;99.90
21762;DHT22;11203;50.870;20.682;2023-02-15T19:23:17;0.00;99.90
21762;DHT22;11203;50.870;20.682;2023-02-15T19:25:46;0.00;1.00
21762;DHT22;11203;50.870;20.682;2023-02-15T19:28:33;0.10;1.00
21762;DHT22;11203;50.870;20.682;2023-02-15T19:30:59;0.00;37.30
21762;DHT22;11203;50.870;20.682;2023-02-15T19:33:25;0.10;99.90
21762;DHT22;11203;50.870;20.682;2023-02-15T19:35:52;0.10;99.90
21762;DHT22;11203;50.870;20.682;2023-02-15T19:38:25;0.00;99.90
21762;DHT22;11203;50.870;20.682;2023-02-15T19:41:00;0.10;92.50
21762;DHT22;11203;50.870;20.682;2023-02-15T19:43:29;0.10;99.90
21762;DHT22;11203;50.870;20.682;2023-02-15T19:45:55;-0.10;1.00
21762;DHT22;11203;50.870;20.682;2023-02-15T19:48:21;-0.10;1.00
21762;DHT22;11203;50.870;20.682;2023-02-15T19:50:48;-0.20;1.00
21762;DHT22;11203;50.870;20.682;2023-02-15T19:53:25;-0.10;1.00